createdAt,value
2023-03-08T00:00:15.342Z,1.43
2023-03-08T00:05:18.301Z,1.27
2023-03-08T00:10:22.077Z,1.19
2023-03-08T00:15:25.435Z,1.25
2023-03-08T00:20:28.438Z,1.27
2023-03-08T00:25:32.090Z,1.23
2023-03-08T00:30:35.017Z,1.20
2023-03-08T00:35:38.035Z,1.15
2023-03-08T00:40:41.073Z,1.09
2023-03-08T00:45:44.187Z,1.00
2023-03-08T00:50:47.768Z,0.87
2023-03-08T00:55:57.610Z,0.78
2023-03-08T01:01:00.698Z,0.72
2023-03-08T01:06:13.919Z,0.74
2023-03-08T01:11:24.561Z,0.95
2023-03-08T01:16:31.852Z,1.00
2023-03-08T01:21:34.870Z,0.93
2023-03-08T01:26:38.096Z,1.22
2023-03-08T01:31:41.008Z,1.70
2023-03-08T01:36:44.026Z,2.16
2023-03-08T01:41:48.370Z,2.58
2023-03-08T01:46:51.449Z,2.64
2023-03-08T01:52:06.979Z,2.53
2023-03-08T01:57:20.601Z,2.34
2023-03-08T02:02:29.800Z,2.13
2023-03-08T02:07:32.823Z,1.92
2023-03-08T02:12:37.120Z,1.73
2023-03-08T02:17:42.812Z,1.54
2023-03-08T02:22:47.247Z,1.41
2023-03-08T02:27:53.538Z,1.28
2023-03-08T02:32:56.648Z,1.19
2023-03-08T02:38:00.241Z,1.13
2023-03-08T02:43:03.265Z,1.03
2023-03-08T02:48:06.669Z,1.09
2023-03-08T02:53:09.824Z,1.33
2023-03-08T02:58:12.848Z,1.67
2023-03-08T03:03:17.485Z,1.86
2023-03-08T03:08:20.527Z,2.11
2023-03-08T03:13:23.510Z,2.30
2023-03-08T03:18:26.866Z,2.37
2023-03-08T03:23:30.002Z,2.48
2023-03-08T03:28:33.179Z,2.62
2023-03-08T03:33:36.600Z,2.81
2023-03-08T03:38:40.545Z,2.93
2023-03-08T03:43:44.258Z,2.99
2023-03-08T03:48:47.914Z,3.00
2023-03-08T03:53:50.891Z,3.03
2023-03-08T03:58:55.028Z,3.04
2023-03-08T04:03:59.109Z,3.00
2023-03-08T04:09:06.670Z,2.94
2023-03-08T04:14:11.446Z,2.91
2023-03-08T04:19:14.453Z,2.88
2023-03-08T04:24:17.532Z,2.87
2023-03-08T04:29:21.233Z,2.84
2023-03-08T04:34:24.237Z,2.77
2023-03-08T04:39:27.185Z,2.73
2023-03-08T04:44:30.467Z,2.76
2023-03-08T04:49:33.559Z,2.85
2023-03-08T04:54:36.280Z,2.97
2023-03-08T04:59:39.303Z,3.03
2023-03-08T05:04:42.478Z,3.06
2023-03-08T05:09:45.308Z,3.12
2023-03-08T05:14:48.305Z,3.17
2023-03-08T05:19:51.348Z,3.16
2023-03-08T05:24:54.840Z,3.13
2023-03-08T05:29:57.817Z,3.10
2023-03-08T05:35:00.577Z,3.15
2023-03-08T05:40:06.516Z,3.27
2023-03-08T05:45:10.149Z,3.39
2023-03-08T05:50:13.492Z,3.62
2023-03-08T05:55:16.573Z,3.83
2023-03-08T06:00:19.902Z,4.03
2023-03-08T06:05:22.895Z,4.23
2023-03-08T06:10:26.388Z,4.37
2023-03-08T06:15:29.388Z,4.54
2023-03-08T06:20:33.001Z,4.71
2023-03-08T06:25:35.952Z,4.92
2023-03-08T06:30:39.421Z,5.10
2023-03-08T06:35:42.639Z,5.37
2023-03-08T06:40:45.851Z,5.64
2023-03-08T06:45:49.127Z,5.89
2023-03-08T06:50:52.164Z,6.11
2023-03-08T06:55:55.256Z,6.20
2023-03-08T07:01:00.131Z,6.19
2023-03-08T07:06:09.618Z,6.11
2023-03-08T07:11:12.412Z,6.03
2023-03-08T07:16:15.713Z,5.98
2023-03-08T07:21:18.762Z,6.01
2023-03-08T07:26:21.800Z,6.05
2023-03-08T07:31:26.667Z,6.19
2023-03-08T07:36:29.596Z,6.33
2023-03-08T07:41:34.804Z,6.43
2023-03-08T07:46:37.793Z,6.58
2023-03-08T07:51:40.924Z,6.70
2023-03-08T07:56:43.867Z,6.83
2023-03-08T08:01:46.838Z,6.93
2023-03-08T08:06:50.377Z,6.96
2023-03-08T08:11:53.311Z,7.10
2023-03-08T08:16:57.453Z,7.29
2023-03-08T08:22:00.919Z,7.50
2023-03-08T08:27:04.387Z,7.70
2023-03-08T08:32:08.409Z,7.83
2023-03-08T08:37:11.520Z,8.19
2023-03-08T08:42:14.537Z,8.83
2023-03-08T08:47:17.569Z,9.19
2023-03-08T08:52:20.659Z,9.17
2023-03-08T08:57:23.693Z,8.91
2023-03-08T09:02:26.822Z,8.75
2023-03-08T09:07:29.794Z,8.62
2023-03-08T09:12:32.729Z,9.04
2023-03-08T09:17:35.726Z,9.26
2023-03-08T09:22:39.663Z,9.28
2023-03-08T09:27:43.053Z,9.52
2023-03-08T09:32:46.189Z,10.15
2023-03-08T09:37:49.135Z,10.76
2023-03-08T09:42:54.525Z,10.79
2023-03-08T09:48:30.107Z,11.17
2023-03-08T09:53:46.861Z,11.42
2023-03-08T09:59:14.284Z,11.29
2023-03-08T10:05:14.406Z,11.46
2023-03-08T10:10:54.023Z,11.49
2023-03-08T10:16:36.043Z,11.36
2023-03-08T10:21:40.828Z,10.99
2023-03-08T10:26:45.150Z,10.91
2023-03-08T10:31:48.616Z,11.13
2023-03-08T10:37:06.474Z,11.33
2023-03-08T10:42:16.739Z,11.62
2023-03-08T10:47:34.752Z,11.91
2023-03-08T10:52:37.767Z,12.07
2023-03-08T10:57:45.763Z,12.03
2023-03-08T11:02:49.317Z,12.17
2023-03-08T11:08:01.185Z,12.28
2023-03-08T11:13:19.320Z,12.38
2023-03-08T11:19:17.200Z,12.50
2023-03-08T11:24:47.786Z,12.66
2023-03-08T11:30:50.629Z,13.11
2023-03-08T11:36:27.667Z,13.47
2023-03-08T11:42:08.224Z,13.70
2023-03-08T11:47:38.571Z,13.40
2023-03-08T11:53:09.756Z,12.85
2023-03-08T11:58:28.941Z,12.32
2023-03-08T12:03:39.077Z,11.79
2023-03-08T12:09:01.876Z,11.47
2023-03-08T12:14:34.034Z,11.30
2023-03-08T12:19:46.602Z,11.15
2023-03-08T12:25:02.803Z,11.11
2023-03-08T12:30:50.917Z,11.01
2023-03-08T12:36:01.351Z,10.83
2023-03-08T12:41:20.185Z,10.62
2023-03-08T12:46:23.300Z,10.63
2023-03-08T12:51:35.702Z,10.74
2023-03-08T12:56:52.494Z,10.77
2023-03-08T13:01:58.502Z,11.05
2023-03-08T13:07:33.626Z,11.38
2023-03-08T13:13:26.776Z,11.33
2023-03-08T13:18:36.919Z,11.07
2023-03-08T13:24:17.201Z,11.07
2023-03-08T13:29:21.687Z,11.10
2023-03-08T13:34:32.125Z,11.13
2023-03-08T13:39:34.866Z,11.19
2023-03-08T13:44:38.135Z,11.10
2023-03-08T13:49:45.643Z,11.00
2023-03-08T13:55:04.938Z,10.89
2023-03-08T14:00:32.563Z,10.90
2023-03-08T14:05:43.916Z,10.98
2023-03-08T14:11:01.030Z,11.02
2023-03-08T14:16:07.805Z,11.03
2023-03-08T14:21:29.416Z,11.08
2023-03-08T14:26:53.230Z,11.19
2023-03-08T14:32:01.761Z,11.23
2023-03-08T14:37:22.690Z,11.18
2023-03-08T14:42:30.635Z,11.13
2023-03-08T14:47:35.561Z,10.99
2023-03-08T14:52:48.681Z,10.83
2023-03-08T14:58:28.080Z,10.67
2023-03-08T15:03:35.324Z,10.53
2023-03-08T15:08:38.192Z,10.42
2023-03-08T15:13:41.351Z,10.41
2023-03-08T15:18:44.369Z,10.43
2023-03-08T15:23:49.198Z,10.40
2023-03-08T15:28:52.280Z,10.34
2023-03-08T15:33:55.241Z,10.28
2023-03-08T15:38:59.729Z,10.21
2023-03-08T15:44:02.460Z,10.13
2023-03-08T15:49:06.288Z,10.09
2023-03-08T15:54:11.384Z,10.04
2023-03-08T15:59:14.399Z,10.02
2023-03-08T16:04:17.453Z,9.98
2023-03-08T16:09:20.340Z,9.95
2023-03-08T16:14:23.414Z,9.92
2023-03-08T16:19:26.494Z,9.89
2023-03-08T16:24:29.761Z,9.88
2023-03-08T16:29:33.658Z,9.86
2023-03-08T16:34:37.788Z,9.83
2023-03-08T16:39:40.678Z,9.78
2023-03-08T16:44:53.571Z,9.74
2023-03-08T16:49:56.417Z,9.69
2023-03-08T16:55:05.461Z,9.63
2023-03-08T17:00:12.398Z,9.61
2023-03-08T17:05:15.371Z,9.59
2023-03-08T17:10:18.483Z,9.61
2023-03-08T17:15:21.639Z,9.64
2023-03-08T17:20:24.937Z,9.65
2023-03-08T17:25:41.224Z,9.63
2023-03-08T17:30:44.681Z,9.64
2023-03-08T17:35:47.737Z,9.65
2023-03-08T17:40:50.791Z,9.68
2023-03-08T17:46:03.721Z,9.73
2023-03-08T17:51:13.923Z,9.77
2023-03-08T17:56:29.259Z,9.82
2023-03-08T18:01:33.269Z,9.84
2023-03-08T18:06:40.336Z,9.90
2023-03-08T18:11:43.814Z,10.00
2023-03-08T18:16:46.760Z,10.01
2023-03-08T18:21:54.299Z,9.97
2023-03-08T18:26:58.106Z,9.94
2023-03-08T18:32:02.485Z,9.91
2023-03-08T18:37:07.051Z,9.88
2023-03-08T18:42:41.451Z,9.75
2023-03-08T18:54:03.974Z,9.46
2023-03-08T18:59:08.570Z,9.45
2023-03-08T19:04:11.799Z,9.53
2023-03-08T19:09:17.697Z,9.56
2023-03-08T19:14:21.109Z,9.57
2023-03-08T19:19:24.261Z,9.59
2023-03-08T19:24:27.699Z,9.65
2023-03-08T19:29:32.599Z,9.78
2023-03-08T19:34:40.450Z,9.86
2023-03-08T19:39:43.801Z,9.85
2023-03-08T19:44:48.537Z,9.77
2023-03-08T19:49:51.770Z,9.67
2023-03-08T19:54:54.874Z,9.56
2023-03-08T19:59:59.561Z,9.54
2023-03-08T20:05:02.564Z,9.50
2023-03-08T20:10:15.702Z,9.50
2023-03-08T20:15:19.160Z,9.47
2023-03-08T20:20:22.559Z,9.39
2023-03-08T20:25:25.493Z,9.34
2023-03-08T20:30:29.332Z,9.23
2023-03-08T20:35:32.449Z,9.17
2023-03-08T20:40:36.440Z,9.21
2023-03-08T20:45:40.505Z,9.27
2023-03-08T20:50:43.836Z,9.32
2023-03-08T20:55:46.721Z,9.32
2023-03-08T21:00:50.266Z,9.48
2023-03-08T21:05:53.571Z,9.54
2023-03-08T21:10:59.472Z,9.55
2023-03-08T21:16:06.302Z,9.68
2023-03-08T21:21:29.126Z,9.67
2023-03-08T21:26:33.471Z,9.47
2023-03-08T21:31:41.634Z,9.30
2023-03-08T21:36:45.329Z,9.30
2023-03-08T21:41:49.182Z,9.39
2023-03-08T21:46:52.660Z,9.55
2023-03-08T21:51:58.053Z,9.67
2023-03-08T21:57:01.134Z,9.87
2023-03-08T22:02:04.199Z,10.03
2023-03-08T22:07:07.308Z,10.16
2023-03-08T22:12:10.588Z,10.24
2023-03-08T22:17:13.996Z,10.28
2023-03-08T22:22:17.916Z,10.21
2023-03-08T22:27:23.124Z,10.32
2023-03-08T22:32:26.135Z,10.54
2023-03-08T22:37:29.103Z,10.59
2023-03-08T22:42:34.123Z,10.57
2023-03-08T22:47:37.290Z,10.53
2023-03-08T22:52:40.758Z,10.53
2023-03-08T22:57:44.373Z,10.52
2023-03-08T23:02:49.028Z,10.48
2023-03-08T23:07:53.309Z,10.51
2023-03-08T23:12:56.271Z,10.49
2023-03-08T23:17:59.353Z,10.47
2023-03-08T23:23:02.275Z,10.41
2023-03-08T23:28:05.726Z,10.38
2023-03-08T23:33:08.850Z,10.34
2023-03-08T23:38:11.985Z,10.31
2023-03-08T23:43:14.933Z,10.35
2023-03-08T23:48:17.841Z,10.40
2023-03-08T23:53:20.922Z,10.48
2023-03-08T23:58:23.869Z,10.59
